createdAt,value
2022-12-24T00:00:40.301Z,0.60
2022-12-24T00:03:07.394Z,0.60
2022-12-24T00:05:37.797Z,0.70
2022-12-24T00:08:04.980Z,0.80
2022-12-24T00:10:32.001Z,0.60
2022-12-24T00:12:58.937Z,0.93
2022-12-24T00:15:25.833Z,1.00
2022-12-24T00:17:55.077Z,1.20
2022-12-24T00:20:21.958Z,0.90
2022-12-24T00:22:48.824Z,0.98
2022-12-24T00:25:15.729Z,1.10
2022-12-24T00:27:42.629Z,1.30
2022-12-24T00:30:09.917Z,1.40
2022-12-24T00:32:37.999Z,1.70
2022-12-24T00:35:05.243Z,1.15
2022-12-24T00:37:32.126Z,0.98
2022-12-24T00:39:58.991Z,0.70
2022-12-24T00:42:25.837Z,0.47
2022-12-24T00:44:52.749Z,0.52
2022-12-24T00:47:19.743Z,0.45
2022-12-24T00:49:46.779Z,0.50
2022-12-24T00:52:13.640Z,0.30
2022-12-24T00:54:40.531Z,0.50
2022-12-24T00:57:07.461Z,0.35
2022-12-24T00:59:34.321Z,0.47
2022-12-24T01:02:01.338Z,0.38
2022-12-24T01:04:46.735Z,0.43
2022-12-24T01:07:13.790Z,0.30
2022-12-24T01:09:40.690Z,0.40
2022-12-24T01:12:07.652Z,0.28
2022-12-24T01:14:34.635Z,0.30
2022-12-24T01:17:01.539Z,0.45
2022-12-24T01:19:28.432Z,0.30
2022-12-24T01:21:55.291Z,0.50
2022-12-24T01:24:22.227Z,0.30
2022-12-24T01:26:49.142Z,0.30
2022-12-24T01:29:16.255Z,0.35
2022-12-24T01:31:43.199Z,0.52
2022-12-24T01:34:10.135Z,0.40
2022-12-24T01:36:37.594Z,0.60
2022-12-24T01:39:04.818Z,0.40
2022-12-24T01:41:51.198Z,0.30
2022-12-24T01:44:36.701Z,0.40
2022-12-24T01:47:11.502Z,0.43
2022-12-24T01:49:43.580Z,0.38
2022-12-24T01:52:18.517Z,0.40
2022-12-24T01:54:51.092Z,0.35
2022-12-24T01:57:41.784Z,0.45
2022-12-24T02:00:12.291Z,0.60
2022-12-24T02:02:46.640Z,0.60
2022-12-24T02:05:31.126Z,0.57
2022-12-24T02:08:03.584Z,0.70
2022-12-24T02:10:30.735Z,0.70
2022-12-24T02:12:59.716Z,0.40
2022-12-24T02:15:32.292Z,0.40
2022-12-24T02:18:07.945Z,0.60
2022-12-24T02:21:02.232Z,0.63
2022-12-24T02:24:13.093Z,0.60
2022-12-24T02:26:45.792Z,0.60
2022-12-24T02:29:45.211Z,1.00
2022-12-24T02:32:18.340Z,1.08
2022-12-24T02:35:11.952Z,1.00
2022-12-24T02:37:50.373Z,1.02
2022-12-24T02:40:24.754Z,1.30
2022-12-24T02:42:56.509Z,1.35
2022-12-24T02:45:29.065Z,1.48
2022-12-24T02:47:56.590Z,1.17
2022-12-24T02:50:25.169Z,1.30
2022-12-24T02:52:52.487Z,1.52
2022-12-24T02:56:00.460Z,1.30
2022-12-24T02:59:11.929Z,1.25
2022-12-24T03:02:01.753Z,1.20
2022-12-24T03:04:57.598Z,1.08
2022-12-24T03:07:42.942Z,0.90
2022-12-24T03:10:24.133Z,1.40
2022-12-24T03:12:56.353Z,1.13
2022-12-24T03:15:25.826Z,1.05
2022-12-24T03:17:57.337Z,1.38
2022-12-24T03:20:31.586Z,1.00
2022-12-24T03:22:58.593Z,0.80
2022-12-24T03:25:27.172Z,0.70
2022-12-24T03:27:56.521Z,0.60
2022-12-24T03:30:23.721Z,0.60
2022-12-24T03:32:50.599Z,0.60
2022-12-24T03:35:17.512Z,0.60
2022-12-24T03:37:44.504Z,0.75
2022-12-24T03:40:11.865Z,0.80
2022-12-24T03:42:38.911Z,0.70
2022-12-24T03:45:06.381Z,0.90
2022-12-24T03:47:33.469Z,0.70
2022-12-24T03:50:00.351Z,0.52
2022-12-24T03:52:27.317Z,0.73
2022-12-24T03:54:54.260Z,0.47
2022-12-24T03:57:21.186Z,0.40
2022-12-24T03:59:48.063Z,0.50
2022-12-24T04:02:15.195Z,0.40
2022-12-24T04:04:42.512Z,0.40
2022-12-24T04:07:09.465Z,0.50
2022-12-24T04:09:37.043Z,0.50
2022-12-24T04:12:04.159Z,0.40
2022-12-24T04:14:31.029Z,0.40
2022-12-24T04:16:58.083Z,0.50
2022-12-24T04:19:25.004Z,0.38
2022-12-24T04:21:51.979Z,0.60
2022-12-24T04:24:18.909Z,0.40
2022-12-24T04:26:45.812Z,0.50
2022-12-24T04:29:13.057Z,0.60
2022-12-24T04:31:39.961Z,0.68
2022-12-24T04:34:06.913Z,0.70
2022-12-24T04:36:34.240Z,0.75
2022-12-24T04:39:01.125Z,0.77
2022-12-24T04:41:28.004Z,0.75
2022-12-24T04:43:55.721Z,0.70
2022-12-24T04:46:25.072Z,0.68
2022-12-24T04:48:54.494Z,0.57
2022-12-24T04:51:22.173Z,1.08
2022-12-24T04:53:49.153Z,0.60
2022-12-24T04:56:22.212Z,0.77
2022-12-24T04:58:49.712Z,0.80
2022-12-24T05:01:20.761Z,1.45
2022-12-24T05:03:48.280Z,1.70
2022-12-24T05:06:20.663Z,2.33
2022-12-24T05:08:48.170Z,2.83
2022-12-24T05:11:16.010Z,3.58
2022-12-24T05:13:47.704Z,5.40
2022-12-24T05:16:16.809Z,5.00
2022-12-24T05:18:43.874Z,5.10
2022-12-24T05:21:16.377Z,4.45
2022-12-24T05:24:02.645Z,3.63
2022-12-24T05:26:31.972Z,3.40
2022-12-24T05:29:01.032Z,7.03
2022-12-24T05:31:29.650Z,12.82
2022-12-24T05:33:57.028Z,10.73
2022-12-24T05:36:24.166Z,11.07
2022-12-24T05:38:51.709Z,7.45
2022-12-24T05:41:19.167Z,4.47
2022-12-24T05:43:46.381Z,6.82
2022-12-24T05:46:16.765Z,7.32
2022-12-24T05:48:43.753Z,7.95
2022-12-24T05:51:13.402Z,9.38
2022-12-24T05:53:40.753Z,9.35
2022-12-24T05:56:12.724Z,7.80
2022-12-24T05:58:40.701Z,11.00
2022-12-24T06:01:09.156Z,12.25
2022-12-24T06:03:36.535Z,12.77
2022-12-24T06:06:12.718Z,21.63
2022-12-24T06:08:40.560Z,16.92
2022-12-24T06:11:10.446Z,24.20
2022-12-24T06:13:37.738Z,18.08
2022-12-24T06:16:06.450Z,13.77
2022-12-24T06:18:35.110Z,13.57
2022-12-24T06:21:02.638Z,11.48
2022-12-24T06:23:31.257Z,9.52
2022-12-24T06:26:01.063Z,11.35
2022-12-24T06:28:32.828Z,10.80
2022-12-24T06:31:04.134Z,16.13
2022-12-24T06:33:32.733Z,17.55
2022-12-24T06:36:00.161Z,18.30
2022-12-24T06:38:27.217Z,18.08
2022-12-24T06:40:55.985Z,17.77
2022-12-24T06:43:23.249Z,18.20
2022-12-24T06:45:50.263Z,18.58
2022-12-24T06:48:17.442Z,23.55
2022-12-24T06:50:45.072Z,20.30
2022-12-24T06:53:12.141Z,20.38
2022-12-24T06:55:39.289Z,21.52
2022-12-24T06:58:06.252Z,19.15
2022-12-24T07:00:33.550Z,17.60
2022-12-24T07:03:00.611Z,18.42
2022-12-24T07:05:27.963Z,18.83
2022-12-24T07:07:54.957Z,19.10
2022-12-24T07:10:22.499Z,17.30
2022-12-24T07:12:49.475Z,19.05
2022-12-24T07:15:16.689Z,18.23
2022-12-24T07:17:43.871Z,19.02
2022-12-24T07:20:15.001Z,18.77
2022-12-24T07:22:42.761Z,18.45
2022-12-24T07:25:11.044Z,17.98
2022-12-24T07:27:38.454Z,18.95
2022-12-24T07:30:06.135Z,18.70
2022-12-24T07:32:33.060Z,19.63
2022-12-24T07:35:00.039Z,18.50
2022-12-24T07:37:27.010Z,20.48
2022-12-24T07:39:53.943Z,17.95
2022-12-24T07:42:20.817Z,15.80
2022-12-24T07:44:48.241Z,16.98
2022-12-24T07:47:15.308Z,17.98
2022-12-24T07:49:42.170Z,16.05
2022-12-24T07:52:09.177Z,12.65
2022-12-24T07:54:36.052Z,12.05
2022-12-24T07:57:03.006Z,10.88
2022-12-24T07:59:29.922Z,9.35
2022-12-24T08:01:56.988Z,9.43
2022-12-24T08:04:24.052Z,8.50
2022-12-24T08:06:50.931Z,9.45
2022-12-24T08:09:17.807Z,10.10
2022-12-24T08:11:51.388Z,9.45
2022-12-24T08:14:19.090Z,7.43
2022-12-24T08:16:46.072Z,7.68
2022-12-24T08:19:13.024Z,6.72
2022-12-24T08:21:39.898Z,6.82
2022-12-24T08:24:07.139Z,7.53
2022-12-24T08:26:34.046Z,6.70
2022-12-24T08:29:01.460Z,6.88
2022-12-24T08:31:28.369Z,6.65
2022-12-24T08:33:55.513Z,6.22
2022-12-24T08:36:22.629Z,5.40
2022-12-24T08:38:49.535Z,6.63
2022-12-24T08:41:16.435Z,6.47
2022-12-24T08:43:43.429Z,5.45
2022-12-24T08:46:10.836Z,6.03
2022-12-24T08:48:37.894Z,5.45
2022-12-24T08:51:11.634Z,5.20
2022-12-24T08:53:39.565Z,5.40
2022-12-24T08:56:08.699Z,4.57
2022-12-24T08:58:36.183Z,4.93
2022-12-24T09:01:12.324Z,4.50
2022-12-24T09:03:39.499Z,4.28
2022-12-24T09:06:07.553Z,4.30
2022-12-24T09:08:35.391Z,4.57
2022-12-24T09:11:14.870Z,4.10
2022-12-24T09:13:42.529Z,4.07
2022-12-24T09:16:12.624Z,3.33
2022-12-24T09:18:40.459Z,3.35
2022-12-24T09:21:16.564Z,3.53
2022-12-24T09:23:47.196Z,3.10
2022-12-24T09:26:20.159Z,3.40
2022-12-24T09:28:48.108Z,2.63
2022-12-24T09:31:15.865Z,1.98
2022-12-24T09:33:45.090Z,2.50
2022-12-24T09:36:12.617Z,2.45
2022-12-24T09:38:42.431Z,2.03
2022-12-24T09:41:20.995Z,2.20
2022-12-24T09:43:53.336Z,40.88
2022-12-24T09:46:37.825Z,14.38
2022-12-24T09:49:10.526Z,2.40
2022-12-24T09:51:40.898Z,2.67
2022-12-24T09:54:10.751Z,3.03
2022-12-24T09:56:44.514Z,2.97
2022-12-24T09:59:21.726Z,3.38
2022-12-24T10:01:51.718Z,3.10
2022-12-24T10:04:25.703Z,3.20
2022-12-24T10:06:59.640Z,3.40
2022-12-24T10:09:29.264Z,2.90
2022-12-24T10:12:22.693Z,3.15
2022-12-24T10:14:58.427Z,2.92
2022-12-24T10:17:39.792Z,3.40
2022-12-24T10:22:56.647Z,2.95
2022-12-24T10:25:34.821Z,2.95
2022-12-24T10:28:03.916Z,2.30
2022-12-24T10:30:30.854Z,2.50
2022-12-24T10:32:57.745Z,2.20
2022-12-24T10:35:32.365Z,2.35
2022-12-24T10:37:59.334Z,1.90
2022-12-24T10:40:38.083Z,3.08
2022-12-24T10:43:20.549Z,2.38
2022-12-24T10:45:51.847Z,2.10
2022-12-24T10:48:33.544Z,1.98
2022-12-24T10:51:06.104Z,2.30
2022-12-24T10:53:51.845Z,2.20
2022-12-24T10:56:20.485Z,1.92
2022-12-24T10:58:53.816Z,2.15
2022-12-24T11:01:41.930Z,1.92
2022-12-24T11:04:17.860Z,2.30
2022-12-24T11:06:55.298Z,2.30
2022-12-24T11:09:29.674Z,1.80
2022-12-24T11:12:07.062Z,2.40
2022-12-24T11:14:38.776Z,2.20
2022-12-24T11:17:06.342Z,1.67
2022-12-24T11:19:40.203Z,1.75
2022-12-24T11:22:17.916Z,1.73
2022-12-24T11:24:50.132Z,1.80
2022-12-24T11:27:44.489Z,1.50
2022-12-24T11:30:27.907Z,1.35
2022-12-24T11:33:00.956Z,1.45
2022-12-24T11:35:29.536Z,1.45
2022-12-24T11:38:05.460Z,2.50
2022-12-24T11:40:50.908Z,4.13
2022-12-24T11:43:22.043Z,2.22
2022-12-24T11:48:32.120Z,2.20
2022-12-24T11:51:05.347Z,2.40
2022-12-24T11:53:49.650Z,2.55
2022-12-24T11:56:57.189Z,2.50
2022-12-24T11:59:34.790Z,2.65
2022-12-24T12:02:25.964Z,2.40
2022-12-24T12:05:04.572Z,3.50
2022-12-24T12:07:34.999Z,3.15
2022-12-24T12:10:06.849Z,2.95
2022-12-24T12:12:45.999Z,3.42
2022-12-24T12:15:29.949Z,3.55
2022-12-24T12:18:20.983Z,3.35
2022-12-24T12:21:00.975Z,2.95
2022-12-24T12:23:37.199Z,2.75
2022-12-24T12:26:22.415Z,2.85
2022-12-24T12:29:00.797Z,2.67
2022-12-24T12:31:30.565Z,2.60
2022-12-24T12:34:10.230Z,2.75
2022-12-24T12:36:48.485Z,2.90
2022-12-24T12:39:15.778Z,2.63
2022-12-24T12:42:10.164Z,2.88
2022-12-24T12:45:03.579Z,3.85
2022-12-24T12:47:51.709Z,13.75
2022-12-24T12:50:47.768Z,5.43
2022-12-24T12:53:35.925Z,3.97
2022-12-24T12:56:33.410Z,4.28
2022-12-24T12:59:23.108Z,3.97
2022-12-24T13:02:12.659Z,4.65
2022-12-24T13:04:48.678Z,4.75
2022-12-24T13:07:37.819Z,5.35
2022-12-24T13:10:26.711Z,5.25
2022-12-24T13:13:22.607Z,5.95
2022-12-24T13:16:27.352Z,6.75
2022-12-24T13:18:57.097Z,7.28
2022-12-24T13:21:26.449Z,7.03
2022-12-24T13:24:15.547Z,6.75
2022-12-24T13:26:43.586Z,6.13
2022-12-24T13:29:49.605Z,6.57
2022-12-24T13:32:22.487Z,6.45
2022-12-24T13:34:59.457Z,6.18
2022-12-24T13:37:32.470Z,6.57
2022-12-24T13:40:08.457Z,6.63
2022-12-24T13:42:59.544Z,6.32
2022-12-24T13:45:29.393Z,6.40
2022-12-24T13:48:03.223Z,7.47
2022-12-24T13:50:39.099Z,6.70
2022-12-24T13:53:42.584Z,6.80
2022-12-24T13:56:22.141Z,6.72
2022-12-24T13:59:10.192Z,7.15
2022-12-24T14:01:42.601Z,6.68
2022-12-24T14:04:21.470Z,7.15
2022-12-24T14:06:51.939Z,7.40
2022-12-24T14:09:25.159Z,7.82
2022-12-24T14:12:04.144Z,8.38
2022-12-24T14:14:33.648Z,8.20
2022-12-24T14:17:22.096Z,11.35
2022-12-24T14:19:56.345Z,9.38
2022-12-24T14:22:23.175Z,7.82
2022-12-24T14:25:02.779Z,7.47
2022-12-24T14:27:58.494Z,7.20
2022-12-24T14:30:28.166Z,7.57
2022-12-24T14:32:56.123Z,7.45
2022-12-24T14:35:30.883Z,6.78
2022-12-24T14:38:02.383Z,6.50
2022-12-24T14:40:53.738Z,7.00
2022-12-24T14:43:24.860Z,6.13
2022-12-24T14:46:09.651Z,5.70
2022-12-24T14:49:10.239Z,5.20
2022-12-24T14:52:37.831Z,4.68
2022-12-24T14:55:00.533Z,5.28
2022-12-24T14:57:27.618Z,5.85
2022-12-24T14:59:54.503Z,6.43
2022-12-24T15:02:51.448Z,6.45
2022-12-24T15:05:28.949Z,8.00
2022-12-24T15:08:02.463Z,8.13
2022-12-24T15:10:36.364Z,7.30
2022-12-24T15:13:07.435Z,8.32
2022-12-24T15:15:35.226Z,8.10
2022-12-24T15:18:04.605Z,8.05
2022-12-24T15:20:31.847Z,8.27
2022-12-24T15:22:59.250Z,8.02
2022-12-24T15:25:32.655Z,7.93
2022-12-24T15:28:00.111Z,7.65
2022-12-24T15:30:29.706Z,8.32
2022-12-24T15:32:58.403Z,8.65
2022-12-24T15:35:31.508Z,9.70
2022-12-24T15:37:59.299Z,10.57
2022-12-24T15:40:26.611Z,11.35
2022-12-24T15:42:53.936Z,11.70
2022-12-24T15:45:31.656Z,12.43
2022-12-24T15:48:01.661Z,12.50
2022-12-24T15:50:44.213Z,12.83
2022-12-24T15:53:19.986Z,14.57
2022-12-24T15:55:59.583Z,14.43
2022-12-24T15:58:28.949Z,18.35
2022-12-24T16:01:02.807Z,19.15
2022-12-24T16:03:30.026Z,19.23
2022-12-24T16:06:05.534Z,18.48
2022-12-24T16:08:34.949Z,17.63
2022-12-24T16:11:19.264Z,17.42
2022-12-24T16:13:57.908Z,17.27
2022-12-24T16:16:42.979Z,14.57
2022-12-24T16:19:25.280Z,14.82
2022-12-24T16:22:00.608Z,13.73
2022-12-24T16:24:31.710Z,13.65
2022-12-24T16:26:58.690Z,12.38
2022-12-24T16:29:27.708Z,12.07
2022-12-24T16:31:57.105Z,12.00
2022-12-24T16:34:27.201Z,11.35
2022-12-24T16:36:54.585Z,11.80
2022-12-24T16:39:24.799Z,10.63
2022-12-24T16:42:15.716Z,10.43
2022-12-24T16:44:43.194Z,11.27
2022-12-24T16:47:14.195Z,15.07
2022-12-24T16:49:41.443Z,17.10
2022-12-24T16:52:15.434Z,17.02
2022-12-24T16:54:42.373Z,15.88
2022-12-24T16:57:10.883Z,15.75
2022-12-24T16:59:38.325Z,12.32
2022-12-24T17:02:10.781Z,13.93
2022-12-24T17:04:41.028Z,12.98
2022-12-24T17:07:08.403Z,13.15
2022-12-24T17:09:35.323Z,13.23
2022-12-24T17:12:02.223Z,13.38
2022-12-24T17:14:29.153Z,13.02
2022-12-24T17:16:56.075Z,12.45
2022-12-24T17:19:22.986Z,12.40
2022-12-24T17:21:50.064Z,13.20
2022-12-24T17:24:16.924Z,13.13
2022-12-24T17:26:44.421Z,12.30
2022-12-24T17:29:11.636Z,11.98
2022-12-24T17:31:40.001Z,11.95
2022-12-24T17:34:07.055Z,11.52
2022-12-24T17:36:34.442Z,12.10
2022-12-24T17:39:01.319Z,12.38
2022-12-24T17:41:28.176Z,13.10
2022-12-24T17:43:55.140Z,12.63
2022-12-24T17:46:23.787Z,12.45
2022-12-24T17:48:52.346Z,12.43
2022-12-24T17:51:22.050Z,11.63
2022-12-24T17:53:49.939Z,11.90
2022-12-24T17:56:17.837Z,11.05
2022-12-24T17:58:46.045Z,11.48
2022-12-24T18:01:15.952Z,12.30
2022-12-24T18:03:44.573Z,11.27
2022-12-24T18:06:12.617Z,11.77
2022-12-24T18:08:40.596Z,10.82
2022-12-24T18:11:24.527Z,10.15
2022-12-24T18:13:51.923Z,9.27
2022-12-24T18:16:23.658Z,10.00
2022-12-24T18:18:51.758Z,10.20
2022-12-24T18:21:20.999Z,8.95
2022-12-24T18:23:49.744Z,8.85
2022-12-24T18:26:17.827Z,8.20
2022-12-24T18:28:44.819Z,8.43
2022-12-24T18:31:14.680Z,7.63
2022-12-24T18:33:43.737Z,7.60
2022-12-24T18:36:11.058Z,8.30
2022-12-24T18:38:38.424Z,8.65
2022-12-24T18:41:10.776Z,9.18
2022-12-24T18:43:37.619Z,9.82
2022-12-24T18:46:19.272Z,9.88
2022-12-24T18:48:47.088Z,11.00
2022-12-24T18:51:17.978Z,12.25
2022-12-24T18:56:15.919Z,10.85
2022-12-24T18:58:43.257Z,9.32
2022-12-24T19:01:22.212Z,8.23
2022-12-24T19:03:49.734Z,8.43
2022-12-24T19:06:17.594Z,10.43
2022-12-24T19:09:01.502Z,15.02
2022-12-24T19:11:31.293Z,17.92
2022-12-24T19:13:59.007Z,23.48
2022-12-24T19:16:27.223Z,23.27
2022-12-24T19:18:54.177Z,25.98
2022-12-24T19:21:21.480Z,26.35
2022-12-24T19:23:48.557Z,25.75
2022-12-24T19:26:17.019Z,25.45
2022-12-24T19:28:45.167Z,23.20
2022-12-24T19:31:14.590Z,24.10
2022-12-24T19:33:45.973Z,24.30
2022-12-24T19:36:16.166Z,24.42
2022-12-24T19:38:43.584Z,22.65
2022-12-24T19:41:13.580Z,23.58
2022-12-24T19:43:42.810Z,23.03
2022-12-24T19:46:12.562Z,20.52
2022-12-24T19:48:39.669Z,17.57
2022-12-24T19:51:09.536Z,16.67
2022-12-24T19:53:37.288Z,11.80
2022-12-24T19:56:04.933Z,16.30
2022-12-24T19:58:32.814Z,15.07
2022-12-24T20:01:22.870Z,14.77
2022-12-24T20:03:51.009Z,13.67
2022-12-24T20:06:20.608Z,15.65
2022-12-24T20:08:48.427Z,15.27
2022-12-24T20:11:18.609Z,15.48
2022-12-24T20:13:45.870Z,16.25
2022-12-24T20:16:16.699Z,16.98
2022-12-24T20:21:12.167Z,19.13
2022-12-24T20:23:42.973Z,18.63
2022-12-24T20:28:39.514Z,20.15
2022-12-24T20:31:10.428Z,21.00
2022-12-24T20:33:37.643Z,20.20
2022-12-24T20:36:04.964Z,21.52
2022-12-24T20:38:32.085Z,21.10
2022-12-24T20:40:59.250Z,22.30
2022-12-24T20:43:29.402Z,21.05
2022-12-24T20:46:01.041Z,22.38
2022-12-24T20:48:28.765Z,21.33
2022-12-24T20:50:56.349Z,22.83
2022-12-24T20:53:23.504Z,22.58
2022-12-24T20:55:54.281Z,22.17
2022-12-24T21:00:49.131Z,19.80
2022-12-24T21:03:17.295Z,21.63
2022-12-24T21:05:45.052Z,20.75
2022-12-24T21:08:13.494Z,22.25
2022-12-24T21:10:40.606Z,21.08
2022-12-24T21:13:08.334Z,20.23
2022-12-24T21:15:39.803Z,21.00
2022-12-24T21:18:11.868Z,20.00
2022-12-24T21:20:41.049Z,19.70
2022-12-24T21:23:08.559Z,18.85
2022-12-24T21:25:35.931Z,19.58
2022-12-24T21:28:02.926Z,19.23
2022-12-24T21:30:29.939Z,20.30
2022-12-24T21:32:57.001Z,18.67
2022-12-24T21:35:23.865Z,19.30
2022-12-24T21:37:51.360Z,19.35
2022-12-24T21:40:18.420Z,20.20
2022-12-24T21:42:45.405Z,18.55
2022-12-24T21:45:12.547Z,19.10
2022-12-24T21:47:39.525Z,19.45
2022-12-24T21:50:30.107Z,18.73
2022-12-24T21:53:17.786Z,18.27
2022-12-24T21:55:44.702Z,17.40
2022-12-24T21:58:11.607Z,17.15
2022-12-24T22:00:38.512Z,18.50
2022-12-24T22:03:05.480Z,18.80
2022-12-24T22:05:34.009Z,17.27
2022-12-24T22:08:20.026Z,16.45
2022-12-24T22:11:05.610Z,16.45
2022-12-24T22:13:32.534Z,17.27
2022-12-24T22:15:59.447Z,17.15
2022-12-24T22:18:27.256Z,16.55
2022-12-24T22:20:54.836Z,19.17
2022-12-24T22:23:21.783Z,20.58
2022-12-24T22:25:48.735Z,21.05
2022-12-24T22:28:15.737Z,22.27
2022-12-24T22:30:45.098Z,23.10
2022-12-24T22:33:12.107Z,21.88
2022-12-24T22:35:40.474Z,21.77
2022-12-24T22:38:09.202Z,20.55
2022-12-24T22:40:38.566Z,21.98
2022-12-24T22:43:05.460Z,23.65
2022-12-24T22:45:32.502Z,25.58
2022-12-24T22:47:59.398Z,23.77
2022-12-24T22:50:26.508Z,21.88
2022-12-24T22:52:54.046Z,21.88
2022-12-24T22:55:21.648Z,20.42
2022-12-24T22:57:49.099Z,19.92
2022-12-24T23:00:41.274Z,18.38
2022-12-24T23:03:08.546Z,18.52
2022-12-24T23:05:35.678Z,19.35
2022-12-24T23:08:03.046Z,20.17
2022-12-24T23:10:29.990Z,18.33
2022-12-24T23:13:15.734Z,19.15
2022-12-24T23:15:42.918Z,20.85
2022-12-24T23:18:10.699Z,19.80
2022-12-24T23:20:45.376Z,21.55
2022-12-24T23:23:13.261Z,21.58
2022-12-24T23:25:40.295Z,20.50
2022-12-24T23:28:07.675Z,21.38
2022-12-24T23:30:34.639Z,20.30
2022-12-24T23:33:01.620Z,21.90
2022-12-24T23:35:28.574Z,20.10
2022-12-24T23:37:55.470Z,21.73
2022-12-24T23:40:22.538Z,21.20
2022-12-24T23:42:49.411Z,22.05
2022-12-24T23:45:16.329Z,22.02
2022-12-24T23:47:43.244Z,21.42
2022-12-24T23:50:11.095Z,21.17
2022-12-24T23:52:38.008Z,21.23
2022-12-24T23:55:05.938Z,20.65
2022-12-24T23:57:32.927Z,21.98
2022-12-24T23:59:59.818Z,21.85
